Time;durP1;ratioP1;P1;durP2;ratioP2;P2;SDS_P1;SDS_P2;PMS_P1;PMS_P2;Temp;Humidity;BMP_temperature;BMP_pressure;BME280_temperature;BME280_humidity;BME280_pressure;Samples;Min_cycle;Max_cycle;Signal;HPM_P1;HPM_P2
2021/01/28 00:00:34;;;;;;;11.77;6.80;;;1.50;99.90;;;;;;2064018;28;20228;-67
2021/01/28 00:01:34;;;;;;;9.80;6.65;;;1.50;99.90;;;;;;2057259;28;20175;-68
2021/01/28 00:02:35;;;;;;;9.53;6.23;;;1.50;99.90;;;;;;2072168;28;20561;-67
2021/01/28 00:03:37;;;;;;;15.48;8.27;;;1.50;99.90;;;;;;2071632;28;20174;-67
2021/01/28 00:04:38;;;;;;;18.50;9.73;;;1.30;99.90;;;;;;2072170;28;20182;-67
2021/01/28 00:05:40;;;;;;;9.00;5.23;;;1.30;99.90;;;;;;2072055;28;20199;-67
2021/01/28 00:06:41;;;;;;;9.25;5.43;;;1.40;99.90;;;;;;2064219;28;20213;-67
2021/01/28 00:07:42;;;;;;;12.80;7.32;;;1.40;99.90;;;;;;2071993;28;20175;-67
2021/01/28 00:08:43;;;;;;;12.83;7.33;;;1.40;99.90;;;;;;2072814;28;20201;-67
2021/01/28 00:09:43;;;;;;;15.33;8.53;;;1.40;99.90;;;;;;2071931;28;20174;-67
2021/01/28 00:10:44;;;;;;;13.97;8.10;;;1.40;99.90;;;;;;2063943;28;20181;-67
2021/01/28 00:11:45;;;;;;;14.87;8.10;;;1.40;99.90;;;;;;2071543;28;20193;-67
2021/01/28 00:12:46;;;;;;;14.13;7.57;;;1.40;99.90;;;;;;2073240;28;20201;-67
2021/01/28 00:13:47;;;;;;;13.82;8.10;;;1.40;99.90;;;;;;2073723;28;20201;-67
2021/01/28 00:14:48;;;;;;;13.70;7.77;;;1.40;99.90;;;;;;2064029;28;20185;-67
2021/01/28 00:15:49;;;;;;;16.20;7.27;;;1.40;99.90;;;;;;2072077;28;20170;-67
2021/01/28 00:16:49;;;;;;;16.85;7.90;;;1.40;99.90;;;;;;2072306;28;20197;-67
2021/01/28 00:17:50;;;;;;;15.97;8.80;;;1.50;99.90;;;;;;2072066;28;20174;-67
2021/01/28 00:18:51;;;;;;;15.80;7.60;;;1.50;99.90;;;;;;2072128;28;20194;-67
2021/01/28 00:19:52;;;;;;;13.90;7.37;;;1.50;99.90;;;;;;2072503;28;20170;-68
2021/01/28 00:20:52;;;;;;;12.97;7.43;;;1.50;99.90;;;;;;2072093;28;20193;-67
2021/01/28 00:21:53;;;;;;;12.87;7.30;;;1.50;99.90;;;;;;2072641;28;20676;-67
2021/01/28 00:22:54;;;;;;;10.30;7.00;;;1.60;99.90;;;;;;2072631;28;20174;-67
2021/01/28 00:23:55;;;;;;;10.93;6.60;;;1.50;99.90;;;;;;2071901;28;20663;-67
2021/01/28 00:24:55;;;;;;;13.50;6.90;;;1.50;99.90;;;;;;2072016;28;20719;-67
2021/01/28 00:25:56;;;;;;;11.40;6.80;;;1.60;99.90;;;;;;2071923;28;20676;-67
2021/01/28 00:26:57;;;;;;;15.17;8.00;;;1.50;99.90;;;;;;2072132;28;20618;-67
2021/01/28 00:27:58;;;;;;;11.90;6.67;;;1.60;99.90;;;;;;2072657;28;20266;-67
2021/01/28 00:28:58;;;;;;;10.47;6.27;;;1.60;99.90;;;;;;2071899;28;20193;-68
2021/01/28 00:29:59;;;;;;;10.10;5.73;;;1.60;99.90;;;;;;2072120;28;20180;-67
2021/01/28 00:31:00;;;;;;;13.17;7.57;;;1.60;99.90;;;;;;2071378;28;20290;-67
2021/01/28 00:32:00;;;;;;;9.17;6.20;;;1.60;99.90;;;;;;2072648;28;20253;-67
2021/01/28 00:33:02;;;;;;;13.33;7.37;;;1.70;99.90;;;;;;2072659;28;20652;-67
2021/01/28 00:34:02;;;;;;;7.90;5.40;;;1.70;99.90;;;;;;2072592;28;20206;-67
2021/01/28 00:35:06;;;;;;;9.77;6.13;;;1.70;99.90;;;;;;2072636;28;20672;-67
2021/01/28 00:36:08;;;;;;;8.45;5.93;;;1.60;99.90;;;;;;2072426;28;20185;-67
2021/01/28 00:37:08;;;;;;;7.82;5.68;;;1.60;99.90;;;;;;2071986;28;20657;-67
2021/01/28 00:38:17;;;;;;;10.10;6.77;;;1.60;99.90;;;;;;2071949;28;20189;-68
2021/01/28 00:39:18;;;;;;;10.25;6.03;;;1.50;99.90;;;;;;2072024;28;20212;-68
2021/01/28 00:40:20;;;;;;;8.23;5.03;;;1.50;99.90;;;;;;2063873;28;20188;-67
2021/01/28 00:41:20;;;;;;;9.32;5.70;;;1.60;99.90;;;;;;2071328;28;20255;-67
2021/01/28 00:42:21;;;;;;;12.47;6.60;;;1.50;99.90;;;;;;2080180;28;20204;-68
2021/01/28 00:43:23;;;;;;;11.03;6.13;;;1.50;99.90;;;;;;2072537;28;20173;-68
2021/01/28 00:44:23;;;;;;;8.60;5.85;;;1.60;99.90;;;;;;2072474;28;20256;-68
2021/01/28 00:45:30;;;;;;;10.07;5.97;;;1.60;99.90;;;;;;2072545;28;20627;-68
2021/01/28 00:46:31;;;;;;;7.60;5.38;;;1.60;99.90;;;;;;2072203;28;20174;-68
2021/01/28 00:47:31;;;;;;;5.67;4.10;;;1.60;99.90;;;;;;2072054;28;20197;-68
2021/01/28 00:48:33;;;;;;;11.07;6.07;;;1.60;99.90;;;;;;2071848;28;20571;-68
2021/01/28 00:49:33;;;;;;;9.15;5.57;;;1.50;99.90;;;;;;2072168;28;20257;-68
2021/01/28 00:50:36;;;;;;;8.90;5.20;;;1.50;99.90;;;;;;2088238;23;20181;-63
2021/01/28 00:51:37;;;;;;;8.43;4.63;;;1.50;99.90;;;;;;2077114;28;20216;-61
2021/01/28 00:52:41;;;;;;;11.67;6.10;;;1.50;99.90;;;;;;2080211;28;20238;-61
2021/01/28 00:53:41;;;;;;;8.15;4.72;;;1.50;99.90;;;;;;2073137;28;20207;-62
2021/01/28 00:54:42;;;;;;;8.70;5.20;;;1.50;99.90;;;;;;2072906;28;20197;-62
2021/01/28 00:55:44;;;;;;;7.10;4.50;;;1.50;99.90;;;;;;2072709;28;20181;-60
2021/01/28 00:56:45;;;;;;;8.30;5.00;;;1.40;99.90;;;;;;2072312;28;20540;-63
2021/01/28 00:57:46;;;;;;;9.00;5.30;;;1.40;99.90;;;;;;2072804;28;20205;-61
2021/01/28 00:58:49;;;;;;;14.05;6.57;;;1.40;99.90;;;;;;2072832;28;20186;-62
2021/01/28 00:59:50;;;;;;;9.75;5.82;;;1.50;99.90;;;;;;2073028;28;20196;-61
2021/01/28 01:00:51;;;;;;;8.53;5.50;;;1.60;99.90;;;;;;2076074;28;20189;-63
2021/01/28 01:01:52;;;;;;;12.02;6.10;;;1.60;99.90;;;;;;2081314;28;20186;-62
2021/01/28 01:02:53;;;;;;;11.50;6.50;;;1.60;99.90;;;;;;2080941;28;20220;-63
2021/01/28 01:03:54;;;;;;;12.60;6.13;;;1.60;99.90;;;;;;2080885;28;20718;-62
2021/01/28 01:04:59;;;;;;;9.17;5.43;;;1.60;99.90;;;;;;2081070;28;20185;-62
2021/01/28 01:06:00;;;;;;;9.35;5.28;;;1.60;99.90;;;;;;2081109;28;20165;-60
2021/01/28 01:07:00;;;;;;;8.47;5.80;;;1.60;99.90;;;;;;2081044;28;20187;-61
2021/01/28 01:08:07;;;;;;;7.17;4.90;;;1.60;99.90;;;;;;2080288;28;20506;-61
2021/01/28 01:09:08;;;;;;;7.80;4.90;;;1.60;99.90;;;;;;2073426;28;20170;-60
2021/01/28 01:10:24;;;;;;;9.07;4.77;;;1.60;99.90;;;;;;2080630;28;20334;-61
2021/01/28 01:11:25;;;;;;;8.07;4.90;;;1.60;99.90;;;;;;2080486;28;20157;-61
2021/01/28 01:12:29;;;;;;;9.27;5.50;;;1.40;99.90;;;;;;2080974;28;20628;-62
2021/01/28 01:13:33;;;;;;;7.40;4.97;;;1.30;99.90;;;;;;2080858;28;20181;-61
2021/01/28 01:14:34;;;;;;;7.45;4.97;;;1.20;99.90;;;;;;2081196;28;20207;-61
2021/01/28 01:15:35;;;;;;;8.63;4.93;;;1.30;99.90;;;;;;2080983;28;20177;-63
2021/01/28 01:16:36;;;;;;;8.38;4.50;;;1.20;99.90;;;;;;2081144;28;20782;-60
2021/01/28 01:17:37;;;;;;;9.63;5.27;;;1.20;99.90;;;;;;2080957;28;20197;-58
2021/01/28 01:18:39;;;;;;;7.53;5.23;;;1.30;99.90;;;;;;2080715;28;20188;-62
2021/01/28 01:19:39;;;;;;;9.20;5.03;;;1.30;99.90;;;;;;2080926;28;20264;-62
2021/01/28 01:20:40;;;;;;;7.60;4.80;;;1.40;99.90;;;;;;2080862;28;20780;-60
2021/01/28 01:21:41;;;;;;;10.70;6.23;;;1.40;99.90;;;;;;2080562;28;20181;-60
2021/01/28 01:22:42;;;;;;;10.13;5.57;;;1.40;99.90;;;;;;2080952;28;20189;-61
2021/01/28 01:23:43;;;;;;;11.65;6.07;;;1.40;99.90;;;;;;2080752;28;20270;-61
2021/01/28 01:24:43;;;;;;;9.77;5.63;;;1.40;99.90;;;;;;2080964;28;20185;-62
2021/01/28 01:25:44;;;;;;;9.73;5.63;;;1.40;99.90;;;;;;2081005;28;20181;-60
2021/01/28 01:26:45;;;;;;;6.33;4.63;;;1.50;99.90;;;;;;2082335;28;20185;-62
2021/01/28 01:27:46;;;;;;;8.17;5.00;;;1.50;99.90;;;;;;2082632;28;20177;-63
2021/01/28 01:28:46;;;;;;;10.38;6.18;;;1.50;99.90;;;;;;2082272;28;20184;-61
2021/01/28 01:29:47;;;;;;;10.37;5.73;;;1.50;99.90;;;;;;2082542;28;20185;-61
2021/01/28 01:30:48;;;;;;;11.70;6.10;;;1.50;99.90;;;;;;2082259;28;20236;-61
2021/01/28 01:31:49;;;;;;;9.02;5.40;;;1.50;99.90;;;;;;2082322;28;20181;-61
2021/01/28 01:32:50;;;;;;;7.00;4.83;;;1.50;99.90;;;;;;2082454;28;20205;-62
2021/01/28 01:33:51;;;;;;;10.35;5.93;;;1.50;99.90;;;;;;2082590;28;20172;-58
2021/01/28 01:34:52;;;;;;;12.40;6.33;;;1.50;99.90;;;;;;2082338;28;20555;-63
2021/01/28 01:35:52;;;;;;;13.33;6.43;;;1.60;99.90;;;;;;2082497;28;20260;-62
2021/01/28 01:36:54;;;;;;;11.33;6.67;;;1.60;99.90;;;;;;2082379;28;20173;-62
2021/01/28 01:37:57;;;;;;;9.48;5.97;;;1.60;99.90;;;;;;2082576;28;20165;-62
2021/01/28 01:38:57;;;;;;;11.20;6.40;;;1.60;99.90;;;;;;2082386;28;20748;-60
2021/01/28 01:39:58;;;;;;;8.67;5.50;;;1.60;99.90;;;;;;2082424;28;20176;-60
2021/01/28 01:40:59;;;;;;;8.43;5.50;;;1.50;99.90;;;;;;2081418;28;20195;-62
2021/01/28 01:42:00;;;;;;;7.90;5.60;;;1.50;99.90;;;;;;2082426;28;20165;-61
2021/01/28 01:43:02;;;;;;;9.30;5.87;;;1.50;99.90;;;;;;2082364;28;20177;-59
2021/01/28 01:44:03;;;;;;;10.07;6.10;;;1.50;99.90;;;;;;2082420;28;20197;-62
2021/01/28 01:45:09;;;;;;;8.88;5.68;;;1.50;99.90;;;;;;2082441;28;20200;-61
2021/01/28 01:46:13;;;;;;;8.48;5.38;;;1.40;99.90;;;;;;2082358;28;20169;-61
2021/01/28 01:47:28;;;;;;;14.40;7.75;;;1.30;99.90;;;;;;2082346;28;20634;-60
2021/01/28 01:48:39;;;;;;;9.95;5.93;;;1.50;99.90;;;;;;2081751;28;20173;-61
2021/01/28 01:49:40;;;;;;;13.55;6.78;;;1.40;99.90;;;;;;2082068;28;20177;-62
2021/01/28 01:51:04;;;;;;;9.73;6.10;;;1.50;99.90;;;;;;2081898;28;20532;-62
2021/01/28 01:52:04;;;;;;;7.68;5.28;;;1.40;99.90;;;;;;2082622;28;20227;-61
2021/01/28 01:53:14;;;;;;;13.03;7.07;;;1.40;99.90;;;;;;2082274;28;20644;-62
2021/01/28 01:54:26;;;;;;;11.25;6.18;;;1.40;99.90;;;;;;2081891;28;20165;-60
2021/01/28 01:55:30;;;;;;;10.52;5.80;;;1.50;99.90;;;;;;2074993;28;20193;-62
2021/01/28 01:56:38;;;;;;;10.10;6.00;;;1.50;99.90;;;;;;2073889;28;20611;-63
2021/01/28 01:57:40;;;;;;;9.32;6.32;;;1.50;99.90;;;;;;2074786;28;20213;-61
2021/01/28 01:59:06;;;;;;;10.50;5.85;;;1.50;99.90;;;;;;2073714;28;20715;-60
2021/01/28 02:00:18;;;;;;;7.82;5.30;;;1.60;99.90;;;;;;2081976;28;20191;-62
2021/01/28 02:01:24;;;;;;;11.65;6.88;;;1.60;99.90;;;;;;2081127;28;20290;-61
2021/01/28 02:02:25;;;;;;;17.17;8.05;;;1.60;99.90;;;;;;2074299;28;20585;-62
2021/01/28 02:03:31;;;;;;;9.73;6.23;;;1.60;99.90;;;;;;2081709;28;20185;-61
2021/01/28 02:04:33;;;;;;;9.77;6.45;;;1.60;99.90;;;;;;2081625;28;20280;-59
2021/01/28 02:05:37;;;;;;;12.38;6.38;;;1.50;99.90;;;;;;2081749;28;20236;-60
2021/01/28 02:06:53;;;;;;;11.30;5.95;;;1.50;99.90;;;;;;2081684;28;20204;-62
2021/01/28 02:07:54;;;;;;;10.50;5.95;;;1.50;99.90;;;;;;2075528;28;20182;-61
2021/01/28 02:08:57;;;;;;;10.00;6.25;;;1.50;99.90;;;;;;2081607;28;20235;-62
2021/01/28 02:09:57;;;;;;;12.07;7.15;;;1.50;99.90;;;;;;2081693;28;20779;-61
2021/01/28 02:11:05;;;;;;;8.03;5.53;;;1.50;99.90;;;;;;2081000;28;20189;-61
2021/01/28 02:12:06;;;;;;;9.88;5.80;;;1.50;99.90;;;;;;2083534;28;20701;-59
2021/01/28 02:13:06;;;;;;;8.80;5.53;;;1.50;99.90;;;;;;2082165;28;20181;-60
2021/01/28 02:14:11;;;;;;;10.50;6.20;;;1.50;99.90;;;;;;2082148;28;20571;-62
2021/01/28 02:15:14;;;;;;;9.02;5.45;;;1.50;99.90;;;;;;2082158;28;20224;-60
2021/01/28 02:16:18;;;;;;;8.10;5.25;;;1.40;99.90;;;;;;2081605;28;20188;-62
2021/01/28 02:17:24;;;;;;;10.63;5.72;;;1.40;99.90;;;;;;2082445;28;20236;-61
2021/01/28 02:18:24;;;;;;;10.43;5.97;;;1.40;99.90;;;;;;2081437;28;20180;-61
2021/01/28 02:19:52;;;;;;;9.33;5.30;;;1.50;99.90;;;;;;2081747;28;20185;-62
2021/01/28 02:21:08;;;;;;;8.45;5.40;;;1.50;99.90;;;;;;2081492;28;20288;-62
2021/01/28 02:22:08;;;;;;;10.18;5.45;;;1.50;99.90;;;;;;2082323;28;20577;-61
2021/01/28 02:23:40;;;;;;;10.67;6.00;;;1.50;99.90;;;;;;2081627;28;20213;-61
2021/01/28 02:24:51;;;;;;;11.60;6.50;;;1.50;99.90;;;;;;2081915;28;20193;-60
2021/01/28 02:25:53;;;;;;;9.13;5.90;;;1.40;99.90;;;;;;2081882;28;20165;-60
2021/01/28 02:26:55;;;;;;;10.13;6.30;;;1.40;99.90;;;;;;2081424;28;20181;-63
2021/01/28 02:28:01;;;;;;;8.75;5.35;;;1.40;99.90;;;;;;2081661;28;20182;-62
2021/01/28 02:29:02;;;;;;;8.23;5.60;;;1.40;99.90;;;;;;2081397;28;20512;-60
2021/01/28 02:30:06;;;;;;;11.07;6.60;;;1.40;99.90;;;;;;2082177;28;20324;-60
2021/01/28 02:31:08;;;;;;;13.05;6.85;;;1.40;99.90;;;;;;2081209;28;20212;-60
2021/01/28 02:32:09;;;;;;;8.85;5.65;;;1.40;99.90;;;;;;2081629;28;20185;-61
2021/01/28 02:33:11;;;;;;;9.37;5.60;;;1.40;99.90;;;;;;2081461;28;20232;-63
2021/01/28 02:34:12;;;;;;;11.35;6.07;;;1.30;99.90;;;;;;2082105;28;20659;-61
2021/01/28 02:35:14;;;;;;;9.27;5.68;;;1.30;99.90;;;;;;2081978;28;20189;-62
2021/01/28 02:36:14;;;;;;;4.93;2.92;;;1.40;99.90;;;;;;2082063;28;20188;-61
2021/01/28 02:37:22;;;;;;;3.07;2.20;;;1.40;99.90;;;;;;2081875;28;20215;-62
2021/01/28 02:38:22;;;;;;;6.05;4.03;;;1.40;99.90;;;;;;2082105;28;20165;-60
2021/01/28 02:39:28;;;;;;;12.07;6.70;;;1.40;99.90;;;;;;2081866;28;20192;-60
2021/01/28 02:40:31;;;;;;;12.48;6.95;;;1.50;99.90;;;;;;2082013;28;20854;-62
2021/01/28 02:41:32;;;;;;;9.25;5.32;;;1.60;99.90;;;;;;2081290;28;20227;-61
2021/01/28 02:42:33;;;;;;;8.48;5.20;;;1.50;99.90;;;;;;2081446;28;20189;-62
2021/01/28 02:43:34;;;;;;;9.43;6.03;;;1.50;99.90;;;;;;2081348;28;20181;-60
2021/01/28 02:44:35;;;;;;;7.88;5.03;;;1.40;99.90;;;;;;2081330;28;20203;-60
2021/01/28 02:45:36;;;;;;;9.93;5.80;;;1.40;99.90;;;;;;2081926;28;20188;-59
2021/01/28 02:46:37;;;;;;;9.45;5.78;;;1.40;99.90;;;;;;2082003;28;20185;-63
2021/01/28 02:47:38;;;;;;;9.63;5.33;;;1.40;99.90;;;;;;2081980;28;20645;-62
2021/01/28 02:48:39;;;;;;;8.27;5.00;;;1.40;99.90;;;;;;2081862;28;20201;-60
2021/01/28 02:49:39;;;;;;;5.00;3.45;;;1.40;99.90;;;;;;2082061;28;20303;-61
2021/01/28 02:50:41;;;;;;;5.13;3.40;;;1.40;99.90;;;;;;2081542;28;20692;-62
2021/01/28 02:51:41;;;;;;;5.03;3.47;;;1.40;99.90;;;;;;2081475;28;20319;-62
2021/01/28 02:52:42;;;;;;;3.90;2.67;;;1.40;99.90;;;;;;2081837;28;20227;-62
2021/01/28 02:53:48;;;;;;;4.03;2.63;;;1.50;99.90;;;;;;2081863;28;20181;-61
2021/01/28 02:54:52;;;;;;;3.70;2.20;;;1.50;99.90;;;;;;2081385;28;20635;-62
2021/01/28 02:55:53;;;;;;;2.50;1.50;;;1.60;99.90;;;;;;2081081;28;20181;-60
2021/01/28 02:56:53;;;;;;;5.67;4.00;;;1.60;99.90;;;;;;2081831;28;20628;-62
2021/01/28 02:57:55;;;;;;;5.83;3.70;;;1.60;99.90;;;;;;2081760;28;20173;-62
2021/01/28 02:58:56;;;;;;;6.75;4.05;;;1.60;99.90;;;;;;2081743;28;20642;-61
2021/01/28 02:59:57;;;;;;;5.63;3.33;;;1.60;99.90;;;;;;2081910;28;20332;-62
2021/01/28 03:00:57;;;;;;;5.07;3.10;;;1.60;99.90;;;;;;2081131;28;20193;-60
2021/01/28 03:02:05;;;;;;;4.27;2.80;;;1.60;99.90;;;;;;2081142;28;20668;-62
2021/01/28 03:03:13;;;;;;;5.60;3.63;;;1.60;99.90;;;;;;2081404;28;20238;-60
2021/01/28 03:04:14;;;;;;;5.97;3.95;;;1.60;99.90;;;;;;2081753;28;20208;-62
2021/01/28 03:05:15;;;;;;;3.20;1.93;;;1.70;99.90;;;;;;2081876;28;20304;-61
2021/01/28 03:06:15;;;;;;;1.87;1.37;;;1.70;99.90;;;;;;2081761;28;20316;-61
2021/01/28 03:07:16;;;;;;;2.47;1.40;;;1.60;99.90;;;;;;2081756;28;20197;-62
2021/01/28 03:08:19;;;;;;;1.45;1.10;;;1.60;99.90;;;;;;2081758;28;20192;-61
2021/01/28 03:09:19;;;;;;;2.30;1.23;;;1.70;99.90;;;;;;2081120;28;20239;-59
2021/01/28 03:10:23;;;;;;;1.03;0.90;;;1.80;99.90;;;;;;2081128;28;20188;-61
2021/01/28 03:11:24;;;;;;;1.08;0.90;;;1.80;99.90;;;;;;2081128;28;20234;-61
2021/01/28 03:12:25;;;;;;;1.10;0.90;;;1.90;99.90;;;;;;2081527;28;20770;-62
2021/01/28 03:13:26;;;;;;;0.80;0.80;;;2.00;99.90;;;;;;2081818;28;20311;-61
2021/01/28 03:14:27;;;;;;;1.08;0.80;;;2.00;99.90;;;;;;2081657;28;20231;-62
2021/01/28 03:15:28;;;;;;;0.82;0.73;;;2.00;99.90;;;;;;2081561;28;20189;-62
2021/01/28 03:16:29;;;;;;;1.10;0.90;;;2.00;99.90;;;;;;2081560;28;20684;-62
2021/01/28 03:17:30;;;;;;;1.08;0.75;;;2.00;99.90;;;;;;2081684;28;20197;-62
2021/01/28 03:18:30;;;;;;;0.70;0.60;;;2.10;99.90;;;;;;2081684;28;20181;-61
2021/01/28 03:19:31;;;;;;;0.90;0.70;;;2.20;99.90;;;;;;2081723;28;20189;-60
2021/01/28 03:22:48;;;;;;;0.43;0.43;;;2.20;99.90;;;;;;2077711;28;20193;-62
2021/01/28 03:23:48;;;;;;;0.50;0.50;;;2.30;99.90;;;;;;2081604;28;20733;-62
2021/01/28 03:24:49;;;;;;;0.97;0.60;;;2.30;99.90;;;;;;2081479;28;20189;-60
2021/01/28 03:25:50;;;;;;;0.50;0.50;;;2.30;99.90;;;;;;2081715;28;20527;-62
2021/01/28 03:26:51;;;;;;;1.13;0.60;;;2.30;99.90;;;;;;2081627;28;20427;-62
2021/01/28 03:27:53;;;;;;;0.50;0.50;;;2.40;99.90;;;;;;2081769;28;20177;-62
2021/01/28 03:28:54;;;;;;;0.75;0.63;;;2.30;99.90;;;;;;2081450;28;20276;-63
2021/01/28 03:29:55;;;;;;;0.80;0.70;;;2.40;99.90;;;;;;2081616;28;20177;-60
2021/01/28 03:30:56;;;;;;;0.47;0.47;;;2.40;99.90;;;;;;2080766;28;20436;-61
2021/01/28 03:31:57;;;;;;;0.60;0.60;;;2.50;99.90;;;;;;2081810;28;20174;-61
2021/01/28 03:32:59;;;;;;;0.60;0.57;;;2.50;99.90;;;;;;2081317;28;20644;-62
2021/01/28 03:34:00;;;;;;;0.40;0.40;;;2.50;99.90;;;;;;2081478;28;20177;-62
2021/01/28 03:35:01;;;;;;;1.10;0.57;;;2.60;99.90;;;;;;2081401;28;20191;-61
2021/01/28 03:36:02;;;;;;;0.60;0.50;;;2.60;99.90;;;;;;2081578;28;20660;-62
2021/01/28 03:37:03;;;;;;;0.60;0.60;;;2.60;99.90;;;;;;2081609;28;20908;-61
2021/01/28 03:38:05;;;;;;;0.50;0.50;;;2.50;99.90;;;;;;2081436;28;20181;-62
2021/01/28 03:39:07;;;;;;;0.60;0.60;;;2.50;99.90;;;;;;2081368;28;20555;-61
2021/01/28 03:40:09;;;;;;;0.40;0.40;;;2.50;99.90;;;;;;2081708;28;20232;-62
2021/01/28 03:41:09;;;;;;;0.75;0.52;;;2.50;99.90;;;;;;2080757;28;20220;-62
2021/01/28 03:42:10;;;;;;;0.50;0.50;;;2.50;99.90;;;;;;2081448;28;20185;-62
2021/01/28 03:43:11;;;;;;;1.10;0.80;;;2.50;99.90;;;;;;2081556;28;20180;-62
2021/01/28 03:44:12;;;;;;;1.50;0.95;;;2.60;99.90;;;;;;2081174;28;20206;-62
2021/01/28 03:45:13;;;;;;;5.93;2.67;;;2.60;99.90;;;;;;2081404;28;20551;-59
2021/01/28 03:46:14;;;;;;;4.28;2.10;;;2.50;99.90;;;;;;2081494;28;20185;-62
2021/01/28 03:47:14;;;;;;;2.40;1.40;;;2.50;99.90;;;;;;2081413;28;20213;-61
2021/01/28 03:48:15;;;;;;;2.50;1.23;;;2.50;99.90;;;;;;2081470;28;20595;-61
2021/01/28 03:49:16;;;;;;;1.20;1.10;;;2.50;99.90;;;;;;2081018;28;20206;-62
2021/01/28 03:50:21;;;;;;;0.80;0.70;;;2.50;99.90;;;;;;2081498;28;20192;-62
2021/01/28 03:51:23;;;;;;;0.40;0.40;;;2.40;99.90;;;;;;2080833;28;20305;-62
2021/01/28 03:52:24;;;;;;;0.50;0.50;;;2.50;99.90;;;;;;2081598;28;20185;-60
2021/01/28 03:53:25;;;;;;;0.50;0.40;;;2.50;99.90;;;;;;2081469;28;20178;-61
2021/01/28 03:54:25;;;;;;;1.03;0.63;;;2.50;99.90;;;;;;2081737;28;20216;-63
2021/01/28 03:55:26;;;;;;;0.97;0.60;;;2.50;99.90;;;;;;2081578;28;20181;-62
2021/01/28 03:56:27;;;;;;;0.30;0.30;;;2.50;99.90;;;;;;2081451;28;20185;-62
2021/01/28 03:57:28;;;;;;;0.70;0.50;;;2.50;99.90;;;;;;2081673;28;20680;-61
2021/01/28 03:58:28;;;;;;;0.47;0.40;;;2.50;99.90;;;;;;2081645;28;20288;-62
2021/01/28 03:59:29;;;;;;;0.27;0.27;;;2.60;99.90;;;;;;2081691;28;20188;-62
2021/01/28 04:00:34;;;;;;;0.30;0.30;;;2.50;99.90;;;;;;2081159;28;20577;-61
2021/01/28 04:01:34;;;;;;;0.30;0.30;;;2.60;99.90;;;;;;2080697;28;20684;-62
2021/01/28 04:02:35;;;;;;;1.43;0.40;;;2.60;99.90;;;;;;2081291;28;20188;-61
2021/01/28 04:03:36;;;;;;;0.40;0.40;;;2.60;99.90;;;;;;2081356;28;20181;-62
2021/01/28 04:04:36;;;;;;;0.60;0.60;;;2.60;99.90;;;;;;2081365;28;20239;-63
2021/01/28 04:05:37;;;;;;;1.53;1.00;;;2.60;99.90;;;;;;2081385;28;20194;-62
2021/01/28 04:06:38;;;;;;;0.50;0.50;;;2.70;99.90;;;;;;2081408;28;20579;-63
2021/01/28 04:07:39;;;;;;;0.40;0.40;;;2.70;99.90;;;;;;2081490;28;20593;-63
2021/01/28 04:08:40;;;;;;;0.70;0.60;;;2.70;99.90;;;;;;2081417;28;20182;-61
2021/01/28 04:09:41;;;;;;;0.30;0.30;;;2.70;99.90;;;;;;2081542;28;20574;-62
2021/01/28 04:10:41;;;;;;;0.25;0.22;;;2.60;99.90;;;;;;2081296;28;20201;-63
2021/01/28 04:11:42;;;;;;;0.53;0.47;;;2.60;99.90;;;;;;2080924;28;20562;-62
2021/01/28 04:12:43;;;;;;;0.60;0.50;;;2.60;99.90;;;;;;2081448;28;20547;-60
2021/01/28 04:13:44;;;;;;;1.40;0.70;;;2.60;99.90;;;;;;2081324;28;20210;-63
2021/01/28 04:14:44;;;;;;;1.30;0.70;;;2.70;99.90;;;;;;2081351;28;20215;-62
2021/01/28 04:15:45;;;;;;;0.90;0.70;;;2.60;99.90;;;;;;2081364;28;20207;-62
2021/01/28 04:16:46;;;;;;;1.77;1.30;;;2.60;99.90;;;;;;2082669;28;20188;-61
2021/01/28 04:17:47;;;;;;;1.30;1.07;;;2.60;99.90;;;;;;2082398;28;20644;-63
2021/01/28 04:18:48;;;;;;;0.50;0.50;;;2.60;99.90;;;;;;2081247;28;20205;-62
2021/01/28 04:19:48;;;;;;;0.67;0.60;;;2.60;99.90;;;;;;2081224;28;20528;-62
2021/01/28 04:20:50;;;;;;;0.47;0.47;;;2.60;99.90;;;;;;2080755;28;20251;-62
2021/01/28 04:21:51;;;;;;;0.50;0.50;;;2.60;99.90;;;;;;2081446;28;20320;-62
2021/01/28 04:22:51;;;;;;;0.93;0.77;;;2.70;99.90;;;;;;2081106;28;20187;-62
2021/01/28 04:23:52;;;;;;;0.63;0.63;;;2.70;99.90;;;;;;2081065;28;20494;-61
2021/01/28 04:24:53;;;;;;;1.00;0.60;;;2.70;99.90;;;;;;2081329;28;20173;-62
2021/01/28 04:25:53;;;;;;;2.13;0.60;;;2.70;99.90;;;;;;2081281;28;20585;-60
2021/01/28 04:26:54;;;;;;;0.50;0.50;;;2.80;99.90;;;;;;2081470;28;20177;-61
2021/01/28 04:27:55;;;;;;;1.60;0.40;;;2.80;99.90;;;;;;2080954;28;20185;-62
2021/01/28 04:28:57;;;;;;;0.70;0.60;;;2.70;99.90;;;;;;2081320;28;20214;-61
2021/01/28 04:29:58;;;;;;;0.88;0.65;;;2.80;99.90;;;;;;2081230;28;20183;-61
2021/01/28 04:30:58;;;;;;;0.80;0.50;;;2.70;99.90;;;;;;2080554;28;20209;-62
2021/01/28 04:31:59;;;;;;;0.50;0.40;;;2.90;99.90;;;;;;2081153;28;20179;-60
2021/01/28 04:33:02;;;;;;;0.73;0.70;;;2.90;99.90;;;;;;2081041;28;20235;-61
2021/01/28 04:34:03;;;;;;;1.98;0.80;;;2.90;99.90;;;;;;2081150;28;20583;-59
2021/01/28 04:35:07;;;;;;;1.10;0.90;;;2.90;99.90;;;;;;2081129;28;20219;-61
2021/01/28 04:36:08;;;;;;;0.80;0.73;;;2.90;99.90;;;;;;2081253;28;20182;-62
2021/01/28 04:37:08;;;;;;;1.60;0.40;;;2.90;99.90;;;;;;2081310;28;20257;-61
2021/01/28 04:38:09;;;;;;;1.33;0.60;;;2.90;99.90;;;;;;2081186;28;20543;-63
2021/01/28 04:39:10;;;;;;;1.83;0.70;;;2.90;99.90;;;;;;2081027;28;20184;-63
2021/01/28 04:40:45;;;;;;;0.40;0.40;;;3.00;99.90;;;;;;2081229;28;20657;-62
2021/01/28 04:41:46;;;;;;;0.75;0.28;;;2.90;99.90;;;;;;2079883;28;20185;-62
2021/01/28 04:42:49;;;;;;;0.40;0.40;;;2.90;99.90;;;;;;2080636;28;20674;-63
2021/01/28 04:43:52;;;;;;;0.50;0.43;;;3.00;99.90;;;;;;2080847;28;20177;-62
2021/01/28 04:44:53;;;;;;;1.00;0.45;;;3.00;99.90;;;;;;2081225;28;20242;-63
2021/01/28 04:45:59;;;;;;;0.47;0.40;;;3.00;99.90;;;;;;2081022;28;20251;-60
2021/01/28 04:47:02;;;;;;;0.32;0.32;;;3.10;99.90;;;;;;2081077;28;20168;-60
2021/01/28 04:48:05;;;;;;;0.40;0.40;;;3.00;99.90;;;;;;2081084;28;20178;-61
2021/01/28 04:49:09;;;;;;;2.40;1.00;;;3.10;99.90;;;;;;2080955;28;20186;-61
2021/01/28 04:50:37;;;;;;;1.02;0.65;;;3.20;99.90;;;;;;2080594;28;20213;-62
2021/01/28 04:51:40;;;;;;;0.20;0.20;;;3.20;99.90;;;;;;2080266;28;20203;-61
2021/01/28 04:52:42;;;;;;;0.40;0.40;;;3.20;99.90;;;;;;2080623;28;20191;-61
2021/01/28 04:53:52;;;;;;;0.30;0.30;;;3.30;99.90;;;;;;2080487;28;20189;-62
2021/01/28 04:54:55;;;;;;;0.40;0.35;;;3.20;99.90;;;;;;2080491;28;20186;-62
2021/01/28 04:55:56;;;;;;;0.47;0.30;;;3.30;99.90;;;;;;2080496;28;20178;-62
2021/01/28 04:56:58;;;;;;;0.20;0.20;;;3.30;99.90;;;;;;2072341;28;20187;-61
2021/01/28 04:57:58;;;;;;;0.22;0.22;;;3.20;99.90;;;;;;2072427;28;20229;-61
2021/01/28 04:59:24;;;;;;;0.40;0.40;;;3.20;99.90;;;;;;2072238;28;20182;-62
2021/01/28 05:00:25;;;;;;;10.43;9.32;;;3.30;99.90;;;;;;2075462;28;20739;-62
2021/01/28 05:01:32;;;;;;;4.70;2.97;;;3.30;99.90;;;;;;2080824;28;20229;-61
2021/01/28 05:02:33;;;;;;;0.60;0.50;;;3.30;99.90;;;;;;2082683;28;20694;-62
2021/01/28 05:03:48;;;;;;;7.83;6.47;;;3.30;99.90;;;;;;2082541;28;20195;-60
2021/01/28 05:04:58;;;;;;;1.98;1.80;;;3.30;99.90;;;;;;2082699;28;20174;-61
2021/01/28 05:06:00;;;;;;;0.82;0.30;;;3.30;99.90;;;;;;2081981;28;20172;-61
2021/01/28 05:07:01;;;;;;;0.20;0.20;;;3.20;99.90;;;;;;2074162;28;20848;-62
2021/01/28 05:08:02;;;;;;;0.20;0.20;;;3.30;99.90;;;;;;2082239;28;20190;-62
2021/01/28 05:09:04;;;;;;;0.40;0.40;;;3.20;99.90;;;;;;2082629;28;20855;-63
2021/01/28 05:10:11;;;;;;;0.40;0.30;;;3.20;99.90;;;;;;2082838;28;20209;-61
2021/01/28 05:11:32;;;;;;;0.25;0.25;;;3.10;99.90;;;;;;2081966;28;20204;-63
2021/01/28 05:12:33;;;;;;;0.20;0.20;;;3.10;99.90;;;;;;2082183;28;20165;-61
2021/01/28 05:13:37;;;;;;;0.10;0.10;;;3.20;99.90;;;;;;2081857;28;20178;-62
2021/01/28 05:14:38;;;;;;;0.20;0.20;;;3.20;99.90;;;;;;2082757;28;20184;-62
2021/01/28 05:15:42;;;;;;;0.17;0.17;;;3.10;99.90;;;;;;2082572;28;20193;-62
2021/01/28 05:16:50;;;;;;;0.40;0.40;;;3.20;99.90;;;;;;2082724;28;20669;-62
2021/01/28 05:18:15;;;;;;;0.20;0.20;;;3.20;99.90;;;;;;2082670;28;20174;-61
2021/01/28 05:20:00;;;;;;;0.73;0.20;;;3.10;99.90;;;;;;2082512;28;20197;-63
2021/01/28 05:21:08;;;;;;;0.30;0.30;;;3.20;99.90;;;;;;2079739;28;20202;-62
2021/01/28 05:22:33;;;;;;;0.30;0.30;;;3.20;99.90;;;;;;2081908;28;20218;-63
2021/01/28 05:23:37;;;;;;;0.30;0.30;;;3.10;99.90;;;;;;2076926;28;20171;-60
2021/01/28 05:24:45;;;;;;;0.95;0.65;;;3.20;99.90;;;;;;2082070;28;20203;-63
2021/01/28 05:25:46;;;;;;;1.00;0.50;;;3.10;99.90;;;;;;2082446;28;20214;-63
2021/01/28 05:26:47;;;;;;;0.67;0.50;;;3.20;99.90;;;;;;2081901;28;20224;-63
2021/01/28 05:27:47;;;;;;;0.40;0.40;;;3.20;99.90;;;;;;2081840;28;20179;-63
2021/01/28 05:28:48;;;;;;;0.83;0.70;;;3.20;99.90;;;;;;2082063;28;20646;-60
2021/01/28 05:29:49;;;;;;;0.30;0.30;;;3.20;99.90;;;;;;2081745;28;20179;-63
2021/01/28 05:30:50;;;;;;;0.68;0.60;;;3.20;99.90;;;;;;2081933;28;20216;-67
2021/01/28 05:31:56;;;;;;;1.75;1.00;;;3.30;99.90;;;;;;2082583;28;20190;-63
2021/01/28 05:32:56;;;;;;;1.63;0.90;;;3.30;99.90;;;;;;2081986;28;20167;-63
2021/01/28 05:34:10;;;;;;;1.23;0.77;;;3.20;99.90;;;;;;2081905;28;20176;-63